Hamburg Finkenwerder, Germany

4:12 PM CEST on September 27, 2016 (GMT +0200)
Finkenwerder | | Change Station

Elev 16 ft 53.54 °N, 9.84 °E | Updated 22 minutes ago

Partly Cloudy
Partly Cloudy
72 °F
Feels Like 72 °F
N
4
Wind Variable Wind from Variable

Today
High -- | Low -- °F
--% Chance of Precip.
Yesterday
High -- | Low -- °F
Precip. -- in
Pressure 30.27 in
Visibility 6.2 miles
Clouds Few 4500 ft
Dew Point 50 °F
Humidity 46%
Rainfall 0.00 in
Snow Depth Not available.
7:15 AM 7:06 PM
Waning Crescent, 11% visible
METAR EDHI 271350Z VRB03KT 9999 FEW045 22/10 Q1025
Pressure 30.27 in
Visibility 6.2 miles
Clouds Few 4500 ft
Dew Point 50 °F
Humidity 46%
Rainfall 0.00 in
Snow Depth Not available.
7:15 AM 7:06 PM
Waning Crescent, 11% visible
METAR EDHI 271350Z VRB03KT 9999 FEW045 22/10 Q1025

10-Day Weather Forecast

×

Almanac

Astronomy

Sep. 27, 2016 Rise Set
Actual Time
Civil Twilight
Nautical Twilight
Astronomical Twilight
Moon
Length of Visible Light
Length of Day
Tomorrow will be .
, % of the Moon is Illuminated

Today's Extremes

Country Highs Country Lows

Community

WunderPhotos

Upload Photos

1,942,083 photos uploaded!

WunderBlog® & News

Nearby

Air Quality

  Air Quality AQ Index Pollutant
Not available.

Snow Depth

Station Depth Elevation

Earthquake Activity

City Distance Mag. Time & Date
Minimum magnitude displayed is 2.5.

Coastal Water Temperatures

Place Temperature

Stations

Nearby Weather Stations

Station Location Temp. Windchill Dew Point Humidity Wind Precip. Elev Updated Type